Terminal Aerodrome Forecast
Issued by NWS

Home | Current Version | Previous Version | Text Only | Print | Product List | Glossary On
Versions: 1 2 3 4 5 6 7 8 9 10 11 12 13 14 15 16 17 18
000
FTUS43 KOAX 221700
TAFSNY
TAF
KSNY 221720Z 2218/2318 34013G22KT P6SM SKC
     FM222200 34010KT P6SM SCT080
     FM230200 27006KT P6SM SKC
     FM231700 25011KT P6SM SCT250=

USA.gov is the U.S. government's official web portal to all federal, state and local government web resources and services.